createdAt,value
2023-05-08T00:00:24.279Z,41.89
2023-05-08T00:02:31.825Z,41.95
2023-05-08T00:04:37.028Z,41.71
2023-05-08T00:06:41.883Z,41.98
2023-05-08T00:08:46.694Z,41.90
2023-05-08T00:10:51.702Z,41.97
2023-05-08T00:12:56.693Z,42.31
2023-05-08T00:15:01.758Z,41.98
2023-05-08T00:17:06.665Z,42.33
2023-05-08T00:19:14.243Z,42.22
2023-05-08T00:21:18.957Z,42.34
2023-05-08T00:23:24.041Z,41.90
2023-05-08T00:25:31.501Z,42.26
2023-05-08T00:27:36.399Z,41.96
2023-05-08T00:29:41.701Z,41.91
2023-05-08T00:31:46.606Z,41.87
2023-05-08T00:33:51.502Z,42.09
2023-05-08T00:36:04.327Z,42.43
2023-05-08T00:38:09.130Z,42.09
2023-05-08T00:40:14.936Z,42.17
2023-05-08T00:42:20.354Z,42.21
2023-05-08T00:44:25.219Z,42.19
2023-05-08T00:46:30.423Z,42.13
2023-05-08T00:48:37.936Z,42.70
2023-05-08T00:50:42.916Z,42.44
2023-05-08T00:52:50.463Z,42.55
2023-05-08T00:54:55.277Z,42.57
2023-05-08T00:57:00.149Z,42.19
2023-05-08T00:59:06.522Z,42.47
2023-05-08T01:01:11.690Z,42.66
2023-05-08T01:03:17.451Z,42.51
2023-05-08T01:05:22.504Z,42.63
2023-05-08T01:07:27.816Z,42.41
2023-05-08T01:09:36.175Z,42.38
2023-05-08T01:11:47.435Z,42.38
2023-05-08T01:13:58.403Z,42.41
2023-05-08T01:16:10.728Z,42.36
2023-05-08T01:18:20.240Z,42.61
2023-05-08T01:20:37.636Z,42.26
2023-05-08T01:23:04.022Z,42.50
2023-05-08T01:25:44.446Z,42.42
2023-05-08T01:28:11.059Z,42.72
2023-05-08T01:30:32.308Z,42.77
2023-05-08T01:32:43.393Z,42.87
2023-05-08T01:34:58.808Z,42.64
2023-05-08T01:37:05.744Z,42.98
2023-05-08T01:39:23.209Z,43.10
2023-05-08T01:41:31.087Z,42.77
2023-05-08T01:43:55.165Z,42.67
2023-05-08T01:46:02.263Z,42.49
2023-05-08T01:48:14.785Z,42.61
2023-05-08T01:50:23.209Z,42.98
2023-05-08T01:52:34.748Z,42.47
2023-05-08T01:54:45.862Z,42.94
2023-05-08T01:56:51.754Z,42.67
2023-05-08T01:58:59.716Z,42.47
2023-05-08T02:01:05.350Z,42.56
2023-05-08T02:03:16.605Z,42.55
2023-05-08T02:05:23.780Z,42.41
2023-05-08T02:07:29.802Z,42.15
2023-05-08T02:09:35.181Z,42.38
2023-05-08T02:11:42.274Z,42.18
2023-05-08T02:13:50.047Z,42.51
2023-05-08T02:15:57.359Z,42.53
2023-05-08T02:18:03.074Z,42.11
2023-05-08T02:20:15.343Z,42.51
2023-05-08T02:22:22.885Z,42.34
2023-05-08T02:24:28.763Z,42.40
2023-05-08T02:26:35.763Z,42.21
2023-05-08T02:28:42.882Z,42.08
2023-05-08T02:30:48.839Z,41.99
2023-05-08T02:32:58.161Z,42.22
2023-05-08T02:35:06.756Z,42.18
2023-05-08T02:37:16.035Z,41.85
2023-05-08T02:39:22.201Z,41.68
2023-05-08T02:41:31.765Z,41.56
2023-05-08T02:43:36.910Z,41.54
2023-05-08T02:45:48.834Z,41.48
2023-05-08T02:48:03.079Z,41.22
2023-05-08T02:50:16.471Z,40.87
2023-05-08T02:52:32.238Z,41.20
2023-05-08T02:54:43.585Z,41.03
2023-05-08T02:56:58.596Z,41.02
2023-05-08T02:59:12.974Z,40.96
2023-05-08T03:01:24.668Z,41.40
2023-05-08T03:03:38.256Z,41.02
2023-05-08T03:05:50.037Z,41.02
2023-05-08T03:08:02.604Z,41.55
2023-05-08T03:10:14.022Z,41.15
2023-05-08T03:12:23.776Z,41.52
2023-05-08T03:14:32.868Z,41.36
2023-05-08T03:16:41.716Z,41.49
2023-05-08T03:18:54.358Z,41.60
2023-05-08T03:21:02.371Z,41.41
2023-05-08T03:23:11.957Z,41.22
2023-05-08T03:25:19.788Z,41.44
2023-05-08T03:27:26.568Z,41.36
2023-05-08T03:29:32.281Z,41.35
2023-05-08T03:31:39.392Z,41.29
2023-05-08T03:33:47.239Z,41.08
2023-05-08T03:35:54.038Z,40.77
2023-05-08T03:37:58.994Z,40.78
2023-05-08T03:40:06.759Z,40.71
2023-05-08T03:42:21.307Z,40.69
2023-05-08T03:44:27.500Z,40.60
2023-05-08T03:46:34.459Z,40.67
2023-05-08T03:48:41.441Z,40.51
2023-05-08T03:50:47.233Z,40.91
2023-05-08T03:52:53.175Z,40.67
2023-05-08T03:54:58.251Z,40.72
2023-05-08T03:57:06.070Z,40.57
2023-05-08T03:59:17.967Z,40.84
2023-05-08T04:01:28.406Z,40.63
2023-05-08T04:03:44.634Z,40.53
2023-05-08T04:05:54.929Z,40.60
2023-05-08T04:08:06.935Z,41.05
2023-05-08T04:10:16.570Z,40.62
2023-05-08T04:12:29.436Z,40.72
2023-05-08T04:14:41.338Z,40.89
2023-05-08T04:16:52.787Z,40.58
2023-05-08T04:19:02.634Z,41.08
2023-05-08T04:21:13.682Z,40.99
2023-05-08T04:23:23.633Z,40.93
2023-05-08T04:25:31.632Z,41.00
2023-05-08T04:27:40.172Z,41.14
2023-05-08T04:29:45.978Z,41.16
2023-05-08T04:31:51.766Z,41.19
2023-05-08T04:33:57.517Z,41.39
2023-05-08T04:36:04.477Z,41.24
2023-05-08T04:38:11.154Z,41.08
2023-05-08T04:40:16.373Z,41.07
2023-05-08T04:42:22.196Z,40.95
2023-05-08T04:44:29.889Z,41.10
2023-05-08T04:46:34.976Z,41.06
2023-05-08T04:48:39.943Z,40.95
2023-05-08T04:50:44.977Z,41.31
2023-05-08T04:52:49.901Z,41.06
2023-05-08T04:54:55.184Z,40.82
2023-05-08T04:57:00.938Z,41.15
2023-05-08T04:59:06.904Z,40.94
2023-05-08T05:01:14.561Z,41.15
2023-05-08T05:03:19.960Z,40.92
2023-05-08T05:05:24.896Z,41.29
2023-05-08T05:07:29.951Z,40.90
2023-05-08T05:09:37.182Z,40.87
2023-05-08T05:11:42.920Z,40.94
2023-05-08T05:13:47.924Z,40.85
2023-05-08T05:15:54.632Z,40.85
2023-05-08T05:18:03.721Z,40.99
2023-05-08T05:20:10.434Z,40.64
2023-05-08T05:22:15.512Z,40.54
2023-05-08T05:24:20.481Z,40.76
2023-05-08T05:26:25.580Z,40.59
2023-05-08T05:28:30.990Z,40.61
2023-05-08T05:30:37.316Z,40.61
2023-05-08T05:32:42.532Z,40.60
2023-05-08T05:34:50.139Z,40.67
2023-05-08T05:36:55.647Z,40.46
2023-05-08T05:39:00.542Z,40.34
2023-05-08T05:41:05.436Z,40.73
2023-05-08T05:43:10.623Z,40.75
2023-05-08T05:45:16.022Z,40.64
2023-05-08T05:47:21.075Z,40.85
2023-05-08T05:49:26.070Z,41.09
2023-05-08T05:51:34.021Z,40.81
2023-05-08T05:53:39.317Z,40.65
2023-05-08T05:55:44.400Z,41.19
2023-05-08T05:57:49.318Z,40.82
2023-05-08T05:59:54.947Z,41.23
2023-05-08T06:02:00.654Z,40.65
2023-05-08T06:04:05.808Z,41.09
2023-05-08T06:06:11.714Z,40.60
2023-05-08T06:08:19.368Z,40.83
2023-05-08T06:10:24.251Z,41.16
2023-05-08T06:12:29.293Z,40.99
2023-05-08T06:14:34.086Z,40.60
2023-05-08T06:16:38.971Z,40.96
2023-05-08T06:18:44.355Z,40.54
2023-05-08T06:20:49.210Z,40.95
2023-05-08T06:22:54.556Z,40.76
2023-05-08T06:25:02.388Z,40.68
2023-05-08T06:27:07.376Z,40.49
2023-05-08T06:29:12.273Z,40.65
2023-05-08T06:31:17.810Z,40.89
2023-05-08T06:33:24.677Z,40.76
2023-05-08T06:35:31.006Z,40.89
2023-05-08T06:37:36.074Z,40.83
2023-05-08T06:39:40.963Z,40.83
2023-05-08T06:41:50.524Z,41.08
2023-05-08T06:44:04.369Z,40.76
2023-05-08T06:46:09.206Z,40.72
2023-05-08T06:48:14.130Z,41.02
2023-05-08T06:50:18.886Z,40.85
2023-05-08T06:52:25.927Z,40.99
2023-05-08T06:54:30.990Z,41.34
2023-05-08T06:56:36.025Z,41.39
2023-05-08T06:58:46.322Z,41.17
2023-05-08T07:00:55.829Z,41.18
2023-05-08T07:03:00.629Z,41.25
2023-05-08T07:05:06.154Z,41.08
2023-05-08T07:07:11.890Z,41.06
2023-05-08T07:09:17.496Z,41.07
2023-05-08T07:11:22.344Z,41.61
2023-05-08T07:13:27.227Z,41.51
2023-05-08T07:15:34.756Z,41.60
2023-05-08T07:17:39.846Z,41.92
2023-05-08T07:19:46.181Z,41.78
2023-05-08T07:21:51.002Z,41.80
2023-05-08T07:23:56.079Z,41.81
2023-05-08T07:26:01.361Z,41.83
2023-05-08T07:28:06.540Z,42.15
2023-05-08T07:30:12.474Z,41.90
2023-05-08T07:32:19.878Z,42.04
2023-05-08T07:34:24.810Z,41.62
2023-05-08T07:36:29.630Z,41.67
2023-05-08T07:38:34.410Z,41.73
2023-05-08T07:40:39.565Z,41.89
2023-05-08T07:42:45.586Z,41.82
2023-05-08T07:44:54.914Z,41.81
2023-05-08T07:47:00.522Z,41.78
2023-05-08T07:49:08.053Z,42.03
2023-05-08T07:51:13.852Z,41.71
2023-05-08T07:53:18.752Z,42.08
2023-05-08T07:55:24.530Z,42.25
2023-05-08T07:57:29.304Z,42.06
2023-05-08T07:59:34.701Z,41.98
2023-05-08T08:01:40.105Z,41.73
2023-05-08T08:03:45.322Z,42.04
2023-05-08T08:05:53.099Z,42.04
2023-05-08T08:07:58.317Z,42.24
2023-05-08T08:10:03.804Z,41.84
2023-05-08T08:12:08.846Z,42.31
2023-05-08T08:14:13.575Z,41.96
2023-05-08T08:16:18.389Z,42.13
2023-05-08T08:18:23.308Z,42.09
2023-05-08T08:20:28.364Z,42.09
2023-05-08T08:22:36.746Z,41.96
2023-05-08T08:24:42.260Z,41.78
2023-05-08T08:26:48.143Z,41.73
2023-05-08T08:28:53.124Z,41.81
2023-05-08T08:30:57.993Z,42.18
2023-05-08T08:33:03.799Z,42.10
2023-05-08T08:35:09.572Z,41.56
2023-05-08T08:37:14.640Z,41.79
2023-05-08T08:39:23.173Z,41.52
2023-05-08T08:41:28.445Z,41.21
2023-05-08T08:43:33.345Z,41.26
2023-05-08T08:45:39.624Z,40.96
2023-05-08T08:47:48.642Z,40.52
2023-05-08T08:49:54.522Z,40.48
2023-05-08T08:52:02.605Z,40.67
2023-05-08T08:54:12.611Z,40.47
2023-05-08T08:56:20.845Z,39.81
2023-05-08T08:58:36.681Z,40.21
2023-05-08T09:00:45.044Z,39.95
2023-05-08T09:02:50.430Z,39.89
2023-05-08T09:04:55.877Z,40.07
2023-05-08T09:07:03.237Z,39.70
2023-05-08T09:09:08.379Z,39.65
2023-05-08T09:11:13.451Z,39.69
2023-05-08T09:13:21.559Z,39.70
2023-05-08T09:15:26.829Z,39.75
2023-05-08T09:17:31.801Z,39.63
2023-05-08T09:19:37.695Z,39.75
2023-05-08T09:21:43.302Z,39.42
2023-05-08T09:24:07.458Z,38.75
2023-05-08T09:26:12.459Z,38.99
2023-05-08T09:28:24.793Z,38.77
2023-05-08T09:30:29.973Z,39.19
2023-05-08T09:32:36.986Z,38.92
2023-05-08T09:34:42.205Z,38.98
2023-05-08T09:36:47.425Z,38.72
2023-05-08T09:38:52.532Z,38.71
2023-05-08T09:41:09.641Z,38.09
2023-05-08T09:43:18.120Z,38.63
2023-05-08T09:45:35.653Z,38.61
2023-05-08T09:47:41.659Z,38.59
2023-05-08T09:50:03.077Z,37.61
2023-05-08T09:52:08.716Z,38.16
2023-05-08T09:54:21.349Z,37.70
2023-05-08T09:56:42.399Z,37.71
2023-05-08T09:58:47.884Z,38.12
2023-05-08T10:00:55.520Z,37.87
2023-05-08T10:03:02.485Z,37.96
2023-05-08T10:05:08.666Z,38.05
2023-05-08T10:07:13.913Z,38.25
2023-05-08T10:09:19.161Z,38.17
2023-05-08T10:11:24.101Z,38.17
2023-05-08T10:13:29.247Z,38.84
2023-05-08T10:15:34.866Z,38.51
2023-05-08T10:17:52.706Z,38.36
2023-05-08T10:20:04.064Z,38.24
2023-05-08T10:22:14.002Z,38.64
2023-05-08T10:24:20.835Z,38.71
2023-05-08T10:26:30.286Z,38.80
2023-05-08T10:28:40.331Z,38.85
2023-05-08T10:30:50.981Z,38.91
2023-05-08T10:33:01.460Z,39.41
2023-05-08T10:35:08.283Z,38.90
2023-05-08T10:37:14.164Z,38.94
2023-05-08T10:39:19.828Z,39.17
2023-05-08T10:41:25.064Z,38.96
2023-05-08T10:43:33.340Z,38.71
2023-05-08T10:45:39.056Z,38.65
2023-05-08T10:47:54.203Z,38.71
2023-05-08T10:50:08.519Z,38.35
2023-05-08T10:52:21.300Z,38.72
2023-05-08T10:54:34.056Z,38.73
2023-05-08T10:56:41.077Z,38.99
2023-05-08T10:58:45.894Z,39.16
2023-05-08T11:01:19.124Z,38.97
2023-05-08T11:03:32.248Z,38.84
2023-05-08T11:05:51.904Z,38.62
2023-05-08T11:07:57.816Z,38.84
2023-05-08T11:10:15.722Z,38.47
2023-05-08T11:12:26.646Z,38.56
2023-05-08T11:14:32.565Z,38.47
2023-05-08T11:17:08.127Z,38.05
2023-05-08T11:19:20.202Z,38.43
2023-05-08T11:21:27.884Z,38.27
2023-05-08T11:23:34.041Z,38.93
2023-05-08T11:25:47.945Z,39.32
2023-05-08T11:28:15.973Z,39.08
2023-05-08T11:30:29.393Z,38.49
2023-05-08T11:33:02.907Z,38.35
2023-05-08T11:35:11.737Z,38.92
2023-05-08T11:37:24.439Z,38.92
2023-05-08T11:39:29.368Z,38.65
2023-05-08T11:41:34.224Z,38.86
2023-05-08T11:44:20.735Z,38.04
2023-05-08T11:46:25.789Z,38.36
2023-05-08T11:48:30.694Z,38.51
2023-05-08T11:50:38.989Z,38.30
2023-05-08T11:52:46.617Z,38.19
2023-05-08T11:54:51.825Z,38.55
2023-05-08T11:56:57.806Z,38.53
2023-05-08T11:59:08.927Z,38.55
2023-05-08T12:01:13.916Z,38.18
2023-05-08T12:03:21.693Z,38.20
2023-05-08T12:05:30.208Z,37.65
2023-05-08T12:07:35.234Z,38.22
2023-05-08T12:09:42.692Z,37.90
2023-05-08T12:11:48.368Z,37.77
2023-05-08T12:13:54.305Z,37.82
2023-05-08T12:16:01.178Z,37.97
2023-05-08T12:18:06.230Z,37.90
2023-05-08T12:20:16.142Z,38.41
2023-05-08T12:22:21.852Z,38.05
2023-05-08T12:24:28.228Z,37.86
2023-05-08T12:26:38.196Z,37.92
2023-05-08T12:28:43.201Z,38.14
2023-05-08T12:30:48.150Z,38.07
2023-05-08T12:32:54.163Z,37.63
2023-05-08T12:34:59.871Z,37.47
2023-05-08T12:37:06.238Z,37.72
2023-05-08T12:39:16.044Z,38.04
2023-05-08T12:41:26.647Z,37.89
2023-05-08T12:43:37.961Z,38.17
2023-05-08T12:45:45.504Z,38.05
2023-05-08T12:47:51.406Z,37.93
2023-05-08T12:50:00.848Z,38.03
2023-05-08T12:52:07.214Z,37.87
2023-05-08T12:54:12.044Z,37.74
2023-05-08T12:56:17.156Z,37.80
2023-05-08T12:58:23.468Z,37.54
2023-05-08T13:00:38.201Z,38.19
2023-05-08T13:02:49.538Z,37.73
2023-05-08T13:04:57.349Z,37.81
2023-05-08T13:07:02.340Z,37.85
2023-05-08T13:09:07.496Z,37.63
2023-05-08T13:11:13.114Z,37.55
2023-05-08T13:13:20.031Z,37.65
2023-05-08T13:15:24.918Z,37.50
2023-05-08T13:17:32.350Z,37.69
2023-05-08T13:19:37.469Z,37.45
2023-05-08T13:21:42.263Z,38.19
2023-05-08T13:23:47.074Z,37.78
2023-05-08T13:25:52.124Z,37.81
2023-05-08T13:27:57.004Z,37.47
2023-05-08T13:30:01.817Z,37.43
2023-05-08T13:32:07.042Z,37.66
2023-05-08T13:34:15.244Z,37.58
2023-05-08T13:36:20.901Z,37.33
2023-05-08T13:38:25.942Z,37.36
2023-05-08T13:40:31.478Z,37.30
2023-05-08T13:42:36.237Z,37.33
2023-05-08T13:44:40.992Z,37.46
2023-05-08T13:46:46.223Z,37.85
2023-05-08T13:48:51.049Z,38.02
2023-05-08T13:50:58.465Z,38.16
2023-05-08T13:53:03.344Z,38.43
2023-05-08T13:55:09.564Z,38.11
2023-05-08T13:57:14.473Z,38.62
2023-05-08T13:59:19.206Z,38.74
2023-05-08T14:01:26.826Z,38.35
2023-05-08T14:03:32.190Z,38.24
2023-05-08T14:05:37.553Z,38.68
2023-05-08T14:07:45.326Z,38.19
2023-05-08T14:09:50.378Z,38.23
2023-05-08T14:11:55.345Z,38.37
2023-05-08T14:14:00.342Z,38.64
2023-05-08T14:16:08.398Z,38.36
2023-05-08T14:18:13.414Z,38.47
2023-05-08T14:20:18.223Z,38.86
2023-05-08T14:22:23.217Z,38.54
2023-05-08T14:24:30.586Z,38.59
2023-05-08T14:26:35.476Z,38.55
2023-05-08T14:28:40.495Z,38.69
2023-05-08T14:30:45.307Z,38.46
2023-05-08T14:32:50.169Z,38.65
2023-05-08T14:34:55.096Z,38.35
2023-05-08T14:36:59.822Z,38.30
2023-05-08T14:39:04.645Z,38.36
2023-05-08T14:41:12.526Z,38.49
2023-05-08T14:43:17.545Z,38.55
2023-05-08T14:45:22.576Z,37.97
2023-05-08T14:47:27.516Z,38.03
2023-05-08T14:49:38.062Z,38.50
2023-05-08T14:51:44.338Z,38.27
2023-05-08T14:53:49.445Z,38.49
2023-05-08T14:55:54.968Z,38.60
2023-05-08T14:58:03.012Z,38.64
2023-05-08T15:00:10.236Z,38.10
2023-05-08T15:02:15.637Z,38.54
2023-05-08T15:04:20.783Z,38.58
2023-05-08T15:06:31.356Z,38.20
2023-05-08T15:08:36.369Z,38.40
2023-05-08T15:10:41.178Z,38.35
2023-05-08T15:12:45.967Z,38.57
2023-05-08T15:14:53.619Z,37.92
2023-05-08T15:16:58.466Z,38.34
2023-05-08T15:19:03.311Z,38.36
2023-05-08T15:21:08.669Z,38.30
2023-05-08T15:23:13.695Z,38.02
2023-05-08T15:25:18.636Z,37.92
2023-05-08T15:27:23.467Z,38.05
2023-05-08T15:29:28.574Z,37.46
2023-05-08T15:31:36.090Z,37.36
2023-05-08T15:33:45.233Z,37.64
2023-05-08T15:35:50.341Z,37.50
2023-05-08T15:37:55.192Z,37.08
2023-05-08T15:40:00.028Z,37.03
2023-05-08T15:42:04.899Z,36.65
2023-05-08T15:44:09.778Z,36.70
2023-05-08T15:46:14.568Z,36.50
2023-05-08T15:48:21.980Z,36.41
2023-05-08T15:50:26.750Z,36.77
2023-05-08T15:52:31.496Z,36.86
2023-05-08T15:54:36.306Z,36.54
2023-05-08T15:56:41.172Z,36.57
2023-05-08T15:58:46.135Z,37.05
2023-05-08T16:00:51.042Z,36.69
2023-05-08T16:02:55.978Z,36.63
2023-05-08T16:05:03.406Z,36.63
2023-05-08T16:07:08.455Z,36.51
2023-05-08T16:09:13.401Z,36.43
2023-05-08T16:11:18.258Z,36.28
2023-05-08T16:13:23.122Z,36.20
2023-05-08T16:15:27.985Z,35.69
2023-05-08T16:17:32.850Z,35.53
2023-05-08T16:19:40.820Z,35.79
2023-05-08T16:21:48.573Z,35.31
2023-05-08T16:23:53.659Z,35.61
2023-05-08T16:25:58.661Z,35.45
2023-05-08T16:28:03.689Z,35.51
2023-05-08T16:30:10.402Z,35.73
2023-05-08T16:32:16.601Z,35.46
2023-05-08T16:34:21.499Z,35.22
2023-05-08T16:36:26.950Z,35.74
2023-05-08T16:38:34.384Z,35.28
2023-05-08T16:40:39.420Z,35.19
2023-05-08T16:42:44.194Z,35.13
2023-05-08T16:44:49.021Z,35.52
2023-05-08T16:46:54.159Z,35.34
2023-05-08T16:48:59.035Z,34.98
2023-05-08T16:51:03.809Z,34.84
2023-05-08T16:53:08.786Z,34.74
2023-05-08T16:55:16.463Z,34.49
2023-05-08T16:57:21.442Z,34.27
2023-05-08T16:59:26.424Z,34.42
2023-05-08T17:01:31.416Z,34.26
2023-05-08T17:03:37.108Z,34.45
2023-05-08T17:05:42.250Z,34.34
2023-05-08T17:07:47.032Z,34.35
2023-05-08T17:09:53.274Z,34.68
2023-05-08T17:12:02.026Z,34.14
2023-05-08T17:14:07.069Z,34.16
2023-05-08T17:16:12.210Z,33.99
2023-05-08T17:18:17.046Z,33.96
2023-05-08T17:20:22.425Z,34.20
2023-05-08T17:22:27.441Z,34.48
2023-05-08T17:24:32.826Z,34.09
2023-05-08T17:26:37.613Z,34.49
2023-05-08T17:28:45.086Z,34.08
2023-05-08T17:30:49.883Z,34.64
2023-05-08T17:32:54.920Z,34.39
2023-05-08T17:34:59.997Z,34.54
2023-05-08T17:37:04.856Z,34.26
2023-05-08T17:39:09.906Z,34.37
2023-05-08T17:41:14.891Z,34.74
2023-05-08T17:43:20.685Z,34.56
2023-05-08T17:45:28.600Z,34.69
2023-05-08T17:47:33.764Z,34.72
2023-05-08T17:49:38.514Z,34.80
2023-05-08T17:51:44.090Z,34.94
2023-05-08T17:53:48.917Z,35.01
2023-05-08T17:55:54.337Z,34.82
2023-05-08T17:57:59.098Z,35.22
2023-05-08T18:00:03.998Z,35.32
2023-05-08T18:02:16.069Z,35.06
2023-05-08T18:04:21.313Z,35.34
2023-05-08T18:06:26.233Z,35.31
2023-05-08T18:08:31.140Z,35.13
2023-05-08T18:10:39.536Z,35.25
2023-05-08T18:12:44.493Z,35.34
2023-05-08T18:14:49.444Z,35.72
2023-05-08T18:16:54.219Z,35.36
2023-05-08T18:19:01.636Z,35.80
2023-05-08T18:21:07.139Z,35.70
2023-05-08T18:23:11.971Z,35.49
2023-05-08T18:25:17.209Z,35.80
2023-05-08T18:27:22.100Z,35.65
2023-05-08T18:29:26.930Z,35.76
2023-05-08T18:31:31.760Z,35.87
2023-05-08T18:33:37.295Z,36.03
2023-05-08T18:35:45.080Z,36.33
2023-05-08T18:37:50.095Z,36.41
2023-05-08T18:39:55.217Z,36.70
2023-05-08T18:42:00.044Z,36.62
2023-05-08T18:44:05.479Z,36.58
2023-05-08T18:46:12.455Z,36.59
2023-05-08T18:48:17.366Z,36.60
2023-05-08T18:50:22.593Z,36.98
2023-05-08T18:52:30.489Z,36.69
2023-05-08T18:54:35.371Z,36.67
2023-05-08T18:56:40.688Z,36.92
2023-05-08T18:58:46.814Z,36.66
2023-05-08T19:00:51.713Z,36.67
2023-05-08T19:02:56.775Z,36.87
2023-05-08T19:05:01.757Z,36.55
2023-05-08T19:07:06.680Z,36.55
2023-05-08T19:09:14.189Z,36.43
2023-05-08T19:11:19.080Z,36.24
2023-05-08T19:13:24.205Z,36.51
2023-05-08T19:15:29.381Z,36.46
2023-05-08T19:17:35.634Z,36.16
2023-05-08T19:19:40.726Z,36.17
2023-05-08T19:21:45.768Z,36.22
2023-05-08T19:23:51.193Z,35.98
2023-05-08T19:25:58.692Z,36.39
2023-05-08T19:28:04.266Z,36.26
2023-05-08T19:30:10.556Z,36.96
2023-05-08T19:32:15.663Z,36.56
2023-05-08T19:34:20.866Z,36.91
2023-05-08T19:36:25.741Z,36.71
2023-05-08T19:38:30.550Z,36.96
2023-05-08T19:40:48.058Z,37.08
2023-05-08T19:42:59.866Z,36.86
2023-05-08T19:45:05.012Z,36.55
2023-05-08T19:47:09.958Z,36.90
2023-05-08T19:49:17.418Z,36.68
2023-05-08T19:51:22.314Z,36.64
2023-05-08T19:53:27.262Z,36.80
2023-05-08T19:55:32.269Z,36.40
2023-05-08T19:57:37.484Z,36.74
2023-05-08T19:59:44.987Z,36.85
2023-05-08T20:01:50.627Z,36.56
2023-05-08T20:03:57.415Z,36.44
2023-05-08T20:06:04.242Z,36.81
2023-05-08T20:08:09.486Z,36.91
2023-05-08T20:10:15.120Z,36.59
2023-05-08T20:12:20.544Z,36.79
2023-05-08T20:14:25.767Z,37.00
2023-05-08T20:16:33.553Z,37.03
2023-05-08T20:18:38.609Z,37.15
2023-05-08T20:20:45.249Z,37.48
2023-05-08T20:22:50.672Z,37.63
2023-05-08T20:24:55.533Z,37.21
2023-05-08T20:27:00.772Z,37.43
2023-05-08T20:29:05.570Z,37.43
2023-05-08T20:31:10.693Z,37.56
2023-05-08T20:33:19.030Z,37.69
2023-05-08T20:35:24.122Z,37.80
2023-05-08T20:37:29.103Z,38.01
2023-05-08T20:39:34.167Z,38.32
2023-05-08T20:41:39.010Z,38.41
2023-05-08T20:43:43.942Z,38.54
2023-05-08T20:45:49.386Z,38.40
2023-05-08T20:47:54.345Z,38.46
2023-05-08T20:50:01.975Z,38.58
2023-05-08T20:52:07.482Z,38.53
2023-05-08T20:54:12.436Z,38.33
2023-05-08T20:56:18.921Z,38.10
2023-05-08T20:58:24.125Z,38.08
2023-05-08T21:00:29.213Z,38.44
2023-05-08T21:02:34.426Z,38.52
2023-05-08T21:04:39.446Z,38.40
2023-05-08T21:06:46.933Z,38.25
2023-05-08T21:08:52.460Z,38.68
2023-05-08T21:10:57.437Z,38.80
2023-05-08T21:13:02.486Z,38.78
2023-05-08T21:15:08.369Z,38.45
2023-05-08T21:17:13.326Z,38.85
2023-05-08T21:19:18.517Z,39.09
2023-05-08T21:21:23.592Z,39.17
2023-05-08T21:23:32.597Z,39.04
2023-05-08T21:25:37.849Z,39.14
2023-05-08T21:27:42.715Z,39.13
2023-05-08T21:29:47.511Z,38.73
2023-05-08T21:31:52.348Z,38.81
2023-05-08T21:33:57.500Z,38.99
2023-05-08T21:36:03.851Z,39.26
2023-05-08T21:38:08.699Z,39.00
2023-05-08T21:40:16.362Z,39.51
2023-05-08T21:42:21.244Z,39.25
2023-05-08T21:44:26.024Z,39.26
2023-05-08T21:46:31.215Z,38.84
2023-05-08T21:48:36.533Z,39.14
2023-05-08T21:50:41.508Z,39.03
2023-05-08T21:52:46.440Z,39.29
2023-05-08T21:54:51.614Z,39.26
2023-05-08T21:56:59.151Z,39.56
2023-05-08T21:59:04.087Z,39.42
2023-05-08T22:01:09.306Z,39.64
2023-05-08T22:03:14.485Z,39.43
2023-05-08T22:05:19.449Z,39.42
2023-05-08T22:07:24.601Z,39.15
2023-05-08T22:09:29.955Z,39.29
2023-05-08T22:11:35.085Z,39.59
2023-05-08T22:13:42.677Z,39.56
2023-05-08T22:15:47.842Z,39.04
2023-05-08T22:17:52.904Z,39.25
2023-05-08T22:19:58.010Z,39.62
2023-05-08T22:22:02.889Z,39.46
2023-05-08T22:24:09.203Z,39.59
2023-05-08T22:26:14.176Z,39.55
2023-05-08T22:28:19.067Z,39.65
2023-05-08T22:30:27.069Z,39.50
2023-05-08T22:32:32.287Z,39.62
2023-05-08T22:34:37.383Z,39.72
2023-05-08T22:36:42.254Z,39.41
2023-05-08T22:38:47.343Z,39.52
2023-05-08T22:40:52.921Z,39.62
2023-05-08T22:42:59.346Z,39.54
2023-05-08T22:45:04.740Z,39.31
2023-05-08T22:47:12.868Z,39.12
2023-05-08T22:49:18.176Z,39.58
2023-05-08T22:51:23.206Z,39.48
2023-05-08T22:53:28.436Z,39.36
2023-05-08T22:55:33.354Z,39.15
2023-05-08T22:57:38.199Z,39.08
2023-05-08T22:59:43.015Z,39.19
2023-05-08T23:01:48.016Z,39.20
2023-05-08T23:03:56.872Z,39.37
2023-05-08T23:06:01.894Z,39.46
2023-05-08T23:08:06.936Z,39.79
2023-05-08T23:10:14.557Z,39.51
2023-05-08T23:12:19.471Z,39.59
2023-05-08T23:14:24.547Z,39.61
2023-05-08T23:16:29.591Z,39.37
2023-05-08T23:18:34.704Z,39.60
2023-05-08T23:20:42.265Z,39.74
2023-05-08T23:22:47.187Z,39.54
2023-05-08T23:24:51.976Z,39.78
2023-05-08T23:26:57.302Z,39.72
2023-05-08T23:29:02.133Z,39.98
2023-05-08T23:31:07.410Z,39.78
2023-05-08T23:33:12.256Z,40.02
2023-05-08T23:35:17.253Z,40.12
2023-05-08T23:37:25.252Z,39.76
2023-05-08T23:39:30.465Z,39.87
2023-05-08T23:41:36.248Z,39.94
2023-05-08T23:43:41.193Z,40.08
2023-05-08T23:45:46.317Z,40.18
2023-05-08T23:47:51.343Z,40.07
2023-05-08T23:49:56.252Z,40.07
2023-05-08T23:52:01.219Z,39.81
2023-05-08T23:54:08.834Z,39.89
2023-05-08T23:56:14.048Z,40.03
2023-05-08T23:58:19.008Z,39.90
